createdAt,value
2023-02-27T00:01:19.489Z,98056.16
2023-02-27T00:03:46.744Z,98060.47
2023-02-27T00:06:13.901Z,98057.81
2023-02-27T00:08:41.053Z,98061.56
2023-02-27T00:11:08.248Z,98049.19
2023-02-27T00:13:36.665Z,98059.69
2023-02-27T00:16:04.759Z,98059.31
2023-02-27T00:18:32.371Z,98065.69
2023-02-27T00:20:59.495Z,98065.13
2023-02-27T00:23:26.598Z,98071.00
2023-02-27T00:25:53.715Z,98071.75
2023-02-27T00:28:20.821Z,98073.34
2023-02-27T00:30:49.414Z,98065.53
2023-02-27T00:33:16.618Z,98071.44
2023-02-27T00:35:43.755Z,98068.72
2023-02-27T00:38:10.885Z,98070.34
2023-02-27T00:40:38.089Z,98068.22
2023-02-27T00:43:05.194Z,98067.41
2023-02-27T00:45:32.348Z,98067.66
2023-02-27T00:48:00.813Z,98069.06
2023-02-27T00:50:27.999Z,98065.25
2023-02-27T00:52:55.083Z,98060.44
2023-02-27T00:55:22.456Z,98054.47
2023-02-27T00:57:49.583Z,98075.50
2023-02-27T01:00:17.206Z,98073.31
2023-02-27T01:02:44.336Z,98074.97
2023-02-27T01:05:12.926Z,98079.25
2023-02-27T01:07:40.161Z,98072.78
2023-02-27T01:10:08.822Z,98078.97
2023-02-27T01:12:36.029Z,98076.53
2023-02-27T01:15:04.105Z,98082.69
2023-02-27T01:17:31.263Z,98086.59
2023-02-27T01:19:58.835Z,98077.69
2023-02-27T01:22:27.285Z,98091.13
2023-02-27T01:24:54.391Z,98084.34
2023-02-27T01:27:21.489Z,98087.78
2023-02-27T01:29:48.581Z,98049.66
2023-02-27T01:32:15.814Z,98095.84
2023-02-27T01:34:42.948Z,98090.44
2023-02-27T01:37:10.027Z,98092.69
2023-02-27T01:39:38.562Z,98097.06
2023-02-27T01:42:16.892Z,98095.16
2023-02-27T01:45:24.176Z,98096.06
2023-02-27T01:47:54.896Z,98096.63
2023-02-27T01:50:22.408Z,98088.78
2023-02-27T01:52:56.088Z,98089.81
2023-02-27T01:55:27.688Z,98092.22
2023-02-27T01:57:55.153Z,98083.00
2023-02-27T02:03:25.545Z,98098.03
2023-02-27T02:05:55.128Z,98092.41
2023-02-27T02:08:25.176Z,98094.78
2023-02-27T02:10:55.603Z,98088.03
2023-02-27T02:13:23.097Z,98092.56
2023-02-27T02:16:03.409Z,98092.56
2023-02-27T02:18:37.202Z,98091.75
2023-02-27T02:21:44.366Z,98096.56
2023-02-27T02:24:52.598Z,98094.72
2023-02-27T02:27:30.082Z,98050.94
2023-02-27T02:30:31.478Z,98089.34
2023-02-27T02:33:30.952Z,98089.34
2023-02-27T02:36:23.447Z,98092.84
2023-02-27T02:39:03.192Z,98100.41
2023-02-27T02:41:41.958Z,98105.72
2023-02-27T02:44:20.006Z,98086.91
2023-02-27T02:46:51.752Z,98106.28
2023-02-27T02:49:27.865Z,98104.69
2023-02-27T02:52:02.160Z,98072.19
2023-02-27T02:54:38.407Z,98099.31
2023-02-27T02:57:10.269Z,98104.69
2023-02-27T02:59:41.633Z,98105.72
2023-02-27T03:02:12.149Z,98096.56
2023-02-27T03:04:43.884Z,98104.31
2023-02-27T03:07:15.625Z,98102.41
2023-02-27T03:09:47.030Z,98069.69
2023-02-27T03:12:19.680Z,98096.41
2023-02-27T03:14:53.684Z,98106.44
2023-02-27T03:17:26.962Z,98100.75
2023-02-27T03:19:58.985Z,98100.28
2023-02-27T03:22:31.617Z,98103.28
2023-02-27T03:25:03.605Z,98110.00
2023-02-27T03:27:35.414Z,98109.31
2023-02-27T03:30:07.096Z,98113.75
2023-02-27T03:32:38.500Z,98115.97
2023-02-27T03:35:06.961Z,98109.22
2023-02-27T03:37:44.441Z,98113.81
2023-02-27T03:40:23.832Z,98116.50
2023-02-27T03:42:57.694Z,98115.66
2023-02-27T03:45:33.536Z,98108.63
2023-02-27T03:48:01.799Z,98124.53
2023-02-27T03:50:29.005Z,98119.09
2023-02-27T03:52:57.091Z,98132.56
2023-02-27T03:55:30.325Z,98128.25
2023-02-27T03:57:58.433Z,98123.38
2023-02-27T04:00:26.545Z,98127.94
2023-02-27T04:02:57.379Z,98135.69
2023-02-27T04:05:24.696Z,98134.88
2023-02-27T04:08:16.185Z,98139.72
2023-02-27T04:11:01.400Z,98129.50
2023-02-27T04:13:52.230Z,98137.63
2023-02-27T04:16:47.149Z,98134.34
2023-02-27T04:19:20.057Z,98142.16
2023-02-27T04:21:56.584Z,98140.53
2023-02-27T04:24:34.163Z,98153.72
2023-02-27T04:27:12.753Z,98152.03
2023-02-27T04:29:53.477Z,98150.38
2023-02-27T04:32:29.309Z,98154.13
2023-02-27T04:35:00.195Z,98150.09
2023-02-27T04:37:33.672Z,98160.06
2023-02-27T04:40:05.793Z,98152.47
2023-02-27T04:42:38.263Z,98148.97
2023-02-27T04:45:10.259Z,98153.25
2023-02-27T04:47:43.471Z,98149.75
2023-02-27T04:50:16.490Z,98150.31
2023-02-27T04:52:50.488Z,98150.56
2023-02-27T04:55:23.019Z,98149.28
2023-02-27T04:57:57.513Z,98145.00
2023-02-27T05:00:26.884Z,98148.53
2023-02-27T05:02:59.403Z,98155.56
2023-02-27T05:05:30.378Z,98156.38
2023-02-27T05:08:03.451Z,98163.59
2023-02-27T05:10:36.252Z,98151.34
2023-02-27T05:13:10.545Z,98161.31
2023-02-27T05:15:44.044Z,98155.13
2023-02-27T05:18:14.387Z,98167.31
2023-02-27T05:20:51.036Z,98165.19
2023-02-27T05:23:25.494Z,98168.94
2023-02-27T05:25:58.524Z,98163.28
2023-02-27T05:28:33.337Z,98161.66
2023-02-27T05:31:05.568Z,98162.16
2023-02-27T05:33:36.486Z,98166.09
2023-02-27T05:36:08.723Z,98161.25
2023-02-27T05:38:41.421Z,98168.19
2023-02-27T05:41:12.245Z,98169.56
2023-02-27T05:43:45.008Z,98171.72
2023-02-27T05:46:20.184Z,98167.09
2023-02-27T05:48:52.653Z,98177.63
2023-02-27T05:51:21.553Z,98177.63
2023-02-27T05:53:53.801Z,98174.41
2023-02-27T05:56:23.838Z,98166.03
2023-02-27T05:58:58.014Z,98178.75
2023-02-27T06:01:25.029Z,98174.41
2023-02-27T06:03:52.106Z,98179.28
2023-02-27T06:06:19.618Z,98178.25
2023-02-27T06:08:46.768Z,98182.13
2023-02-27T06:11:13.965Z,98185.22
2023-02-27T06:13:42.177Z,98174.50
2023-02-27T06:16:12.599Z,98181.56
2023-02-27T06:18:39.939Z,98187.88
2023-02-27T06:21:07.065Z,98167.72
2023-02-27T06:23:34.184Z,98175.56
2023-02-27T06:26:01.296Z,98177.47
2023-02-27T06:28:28.410Z,98188.75
2023-02-27T06:30:56.366Z,98183.38
2023-02-27T06:33:25.278Z,98167.69
2023-02-27T06:35:52.762Z,98180.97
2023-02-27T06:38:19.920Z,98169.66
2023-02-27T06:40:47.044Z,98184.47
2023-02-27T06:43:14.434Z,98187.66
2023-02-27T06:45:41.588Z,98185.25
2023-02-27T06:48:09.170Z,98182.56
2023-02-27T06:50:37.628Z,98185.81
2023-02-27T06:53:04.758Z,98185.53
2023-02-27T06:55:31.840Z,98186.31
2023-02-27T06:57:58.944Z,98187.09
2023-02-27T07:00:26.179Z,98188.16
2023-02-27T07:02:53.322Z,98187.06
2023-02-27T07:05:20.469Z,98195.66
2023-02-27T07:07:48.886Z,98199.69
2023-02-27T07:10:16.435Z,98197.78
2023-02-27T07:12:43.599Z,98201.47
2023-02-27T07:15:11.337Z,98202.22
2023-02-27T07:17:38.464Z,98205.91
2023-02-27T07:20:07.816Z,98208.88
2023-02-27T07:22:34.917Z,98215.63
2023-02-27T07:25:03.683Z,98219.91
2023-02-27T07:27:31.069Z,98215.38
2023-02-27T07:29:58.394Z,98216.72
2023-02-27T07:32:25.544Z,98218.91
2023-02-27T07:34:52.806Z,98217.00
2023-02-27T07:37:20.030Z,98215.38
2023-02-27T07:39:47.121Z,98210.53
2023-02-27T07:42:15.545Z,98212.72
2023-02-27T07:44:42.623Z,98214.63
2023-02-27T07:47:09.729Z,98211.09
2023-02-27T07:49:36.835Z,98215.19
2023-02-27T07:52:04.140Z,98217.63
2023-02-27T07:54:31.823Z,98208.78
2023-02-27T07:56:59.793Z,98218.22
2023-02-27T07:59:28.215Z,98217.38
2023-02-27T08:01:55.354Z,98207.28
2023-02-27T08:04:22.742Z,98222.88
2023-02-27T08:06:49.883Z,98228.00
2023-02-27T08:09:17.054Z,98226.38
2023-02-27T08:11:44.165Z,98237.00
2023-02-27T08:14:11.313Z,98234.31
2023-02-27T08:16:39.811Z,98234.84
2023-02-27T08:19:07.006Z,98239.50
2023-02-27T08:21:34.106Z,98245.81
2023-02-27T08:24:01.186Z,98246.38
2023-02-27T08:26:28.792Z,98242.19
2023-02-27T08:28:56.230Z,98252.72
2023-02-27T08:31:23.690Z,98242.69
2023-02-27T08:34:00.993Z,98258.28
2023-02-27T08:36:34.951Z,98261.13
2023-02-27T08:39:02.053Z,98258.28
2023-02-27T08:41:29.159Z,98262.63
2023-02-27T08:43:56.272Z,98259.66
2023-02-27T08:46:23.449Z,98262.88
2023-02-27T08:48:51.903Z,98259.63
2023-02-27T08:51:18.997Z,98271.00
2023-02-27T08:53:46.102Z,98278.81
2023-02-27T08:56:13.183Z,98271.50
2023-02-27T08:58:40.290Z,98272.25
2023-02-27T09:01:07.540Z,98276.31
2023-02-27T09:03:34.682Z,98293.00
2023-02-27T09:06:03.281Z,98279.53
2023-02-27T09:08:30.405Z,98286.63
2023-02-27T09:10:57.969Z,98293.59
2023-02-27T09:13:25.064Z,98295.50
2023-02-27T09:15:52.326Z,98300.03
2023-02-27T09:18:20.411Z,98297.06
2023-02-27T09:20:49.153Z,98295.69
2023-02-27T09:23:18.032Z,98305.59
2023-02-27T09:25:46.860Z,98306.38
2023-02-27T09:28:14.013Z,98297.72
2023-02-27T09:30:41.353Z,98306.34
2023-02-27T09:33:08.503Z,98303.66
2023-02-27T09:35:35.649Z,98311.34
2023-02-27T09:38:02.944Z,98309.16
2023-02-27T09:40:37.975Z,98315.13
2023-02-27T09:43:11.140Z,98305.69
2023-02-27T09:45:38.610Z,98309.94
2023-02-27T09:48:12.244Z,98309.16
2023-02-27T09:50:42.274Z,98315.63
2023-02-27T09:53:13.456Z,98306.19
2023-02-27T09:55:43.648Z,98310.53
2023-02-27T09:58:29.327Z,98315.94
2023-02-27T10:01:02.997Z,98321.31
2023-02-27T10:03:54.958Z,98324.78
2023-02-27T10:06:26.418Z,98324.50
2023-02-27T10:09:12.636Z,98320.16
2023-02-27T10:11:56.995Z,98323.88
2023-02-27T10:14:34.013Z,98318.19
2023-02-27T10:17:05.885Z,98327.97
2023-02-27T10:19:37.206Z,98321.72
2023-02-27T10:22:10.664Z,98334.09
2023-02-27T10:24:43.922Z,98324.28
2023-02-27T10:27:17.819Z,98325.44
2023-02-27T10:29:46.471Z,98331.09
2023-02-27T10:32:17.805Z,98335.75
2023-02-27T10:34:51.456Z,98336.78
2023-02-27T10:37:22.468Z,98345.72
2023-02-27T10:39:54.506Z,98342.56
2023-02-27T10:42:25.867Z,98334.72
2023-02-27T10:44:52.970Z,98333.06
2023-02-27T10:47:23.569Z,98343.84
2023-02-27T10:49:52.344Z,98344.63
2023-02-27T10:52:19.513Z,98342.97
2023-02-27T10:54:47.557Z,98342.72
2023-02-27T10:57:25.205Z,98342.44
2023-02-27T10:59:58.369Z,98339.06
2023-02-27T11:02:31.237Z,98335.56
2023-02-27T11:05:00.414Z,98337.31
2023-02-27T11:07:30.924Z,98332.16
2023-02-27T11:10:04.847Z,98330.31
2023-02-27T11:12:34.512Z,98322.72
2023-02-27T11:15:22.394Z,98333.50
2023-02-27T11:17:49.501Z,98326.00
2023-02-27T11:20:33.273Z,98309.50
2023-02-27T11:23:04.354Z,98327.88
2023-02-27T11:25:31.794Z,98321.19
2023-02-27T11:28:13.594Z,98311.50
2023-02-27T11:30:43.279Z,98316.66
2023-02-27T11:33:18.985Z,98322.31
2023-02-27T11:35:51.451Z,98315.19
2023-02-27T11:38:27.126Z,98286.97
2023-02-27T11:40:56.326Z,98307.91
2023-02-27T11:43:26.547Z,98305.75
2023-02-27T11:46:23.801Z,98304.97
2023-02-27T11:48:49.997Z,98303.06
2023-02-27T11:51:38.329Z,98302.28
2023-02-27T11:54:12.837Z,98297.38
2023-02-27T11:56:44.526Z,98292.50
2023-02-27T11:59:26.369Z,98294.66
2023-02-27T12:02:00.528Z,98289.56
2023-02-27T12:04:29.806Z,98288.50
2023-02-27T12:07:03.415Z,98299.81
2023-02-27T12:09:40.965Z,98289.81
2023-02-27T12:12:18.014Z,98290.34
2023-02-27T12:14:53.907Z,98287.38
2023-02-27T12:17:29.431Z,98284.69
2023-02-27T12:20:09.690Z,98283.59
2023-02-27T12:22:42.940Z,98279.34
2023-02-27T12:25:15.442Z,98275.59
2023-02-27T12:27:46.823Z,98285.56
2023-02-27T12:30:19.355Z,98283.31
2023-02-27T12:32:54.088Z,98273.78
2023-02-27T12:35:25.447Z,98273.50
2023-02-27T12:37:53.146Z,98269.75
2023-02-27T12:40:25.694Z,98268.91
2023-02-27T12:43:08.958Z,98272.44
2023-02-27T12:45:59.870Z,98257.38
2023-02-27T12:48:44.121Z,98270.41
2023-02-27T12:51:29.263Z,98259.94
2023-02-27T12:54:14.489Z,98260.53
2023-02-27T12:56:50.350Z,98263.22
2023-02-27T12:59:30.532Z,98262.47
2023-02-27T13:02:06.728Z,98257.31
2023-02-27T13:04:44.090Z,98255.75
2023-02-27T13:07:21.470Z,98262.16
2023-02-27T13:09:52.815Z,98261.63
2023-02-27T13:12:29.310Z,98260.22
2023-02-27T13:15:03.092Z,98264.53
2023-02-27T13:17:37.658Z,98261.00
2023-02-27T13:20:26.797Z,98262.34
2023-02-27T13:22:58.615Z,98265.56
2023-02-27T13:25:26.677Z,98264.25
2023-02-27T13:27:58.243Z,98266.63
2023-02-27T13:30:29.657Z,98261.75
2023-02-27T13:33:05.580Z,98262.13
2023-02-27T13:35:43.168Z,98262.66
2023-02-27T13:38:32.415Z,98255.41
2023-02-27T13:41:37.074Z,98259.88
2023-02-27T13:44:46.987Z,98262.09
2023-02-27T13:47:39.764Z,98236.31
2023-02-27T13:50:40.303Z,98267.25
2023-02-27T13:53:18.165Z,98260.06
2023-02-27T13:55:45.557Z,98268.56
2023-02-27T13:58:18.671Z,98270.22
2023-02-27T14:00:56.548Z,98262.47
2023-02-27T14:03:26.606Z,98262.84
2023-02-27T14:05:58.286Z,98266.66
2023-02-27T14:08:28.732Z,98262.63
2023-02-27T14:10:58.841Z,98269.63
2023-02-27T14:14:06.611Z,98268.28
2023-02-27T14:16:57.547Z,98253.69
2023-02-27T14:19:46.485Z,98264.47
2023-02-27T14:22:41.580Z,98256.09
2023-02-27T14:25:20.326Z,98263.69
2023-02-27T14:27:57.210Z,98257.47
2023-02-27T14:30:30.033Z,98257.19
2023-02-27T14:33:01.464Z,98253.66
2023-02-27T14:35:30.060Z,98256.91
2023-02-27T14:37:59.966Z,98255.59
2023-02-27T14:40:34.322Z,98257.47
2023-02-27T14:43:10.722Z,98259.06
2023-02-27T14:45:37.969Z,98258.22
2023-02-27T14:48:09.235Z,98269.31
2023-02-27T14:50:40.382Z,98268.75
2023-02-27T14:53:21.321Z,98278.41
2023-02-27T14:55:55.950Z,98268.97
2023-02-27T14:58:23.422Z,98271.47
2023-02-27T15:01:02.650Z,98271.78
2023-02-27T15:03:38.223Z,98273.13
2023-02-27T15:06:14.250Z,98277.44
2023-02-27T15:08:45.082Z,98268.00
2023-02-27T15:11:17.908Z,98272.31
2023-02-27T15:13:46.351Z,98274.19
2023-02-27T15:16:34.951Z,98279.03
2023-02-27T15:19:12.042Z,98277.44
2023-02-27T15:21:42.549Z,98287.72
2023-02-27T15:24:22.035Z,98290.41
2023-02-27T15:26:54.809Z,98296.34
2023-02-27T15:29:24.195Z,98268.28
2023-02-27T15:31:52.444Z,98286.09
2023-02-27T15:34:20.062Z,98281.75
2023-02-27T15:36:50.631Z,98287.69
2023-02-27T15:39:20.316Z,98284.16
2023-02-27T15:41:49.839Z,98294.13
2023-02-27T15:44:24.085Z,98288.72
2023-02-27T15:46:52.147Z,98293.06
2023-02-27T15:49:21.525Z,98282.69
2023-02-27T15:51:56.105Z,98293.00
2023-02-27T15:54:26.339Z,98291.34
2023-02-27T15:56:53.553Z,98297.03
2023-02-27T15:59:22.073Z,98300.81
2023-02-27T16:01:49.533Z,98291.84
2023-02-27T16:04:24.334Z,98297.53
2023-02-27T16:06:59.317Z,98303.94
2023-02-27T16:09:30.335Z,98218.50
2023-02-27T16:12:11.651Z,98316.06
2023-02-27T16:14:42.269Z,98325.47
2023-02-27T16:17:29.720Z,98326.03
2023-02-27T16:20:00.758Z,98326.59
2023-02-27T16:22:28.469Z,98310.94
2023-02-27T16:25:08.441Z,98326.13
2023-02-27T16:27:36.216Z,98332.06
2023-02-27T16:30:10.433Z,98342.84
2023-02-27T16:32:40.555Z,98340.44
2023-02-27T16:35:15.761Z,98346.03
2023-02-27T16:37:43.394Z,98349.03
2023-02-27T16:40:14.525Z,98348.22
2023-02-27T16:42:42.052Z,98352.53
2023-02-27T16:45:14.548Z,98360.59
2023-02-27T16:47:41.686Z,98348.41
2023-02-27T16:50:17.013Z,98358.63
2023-02-27T16:52:44.165Z,98357.94
2023-02-27T16:55:13.070Z,98364.75
2023-02-27T16:57:40.145Z,98371.09
2023-02-27T17:00:10.627Z,98370.03
2023-02-27T17:02:39.211Z,98376.66
2023-02-27T17:05:06.934Z,98367.78
2023-02-27T17:07:34.125Z,98372.81
2023-02-27T17:10:01.220Z,98388.25
2023-02-27T17:12:28.369Z,98373.44
2023-02-27T17:14:55.853Z,98389.41
2023-02-27T17:17:22.950Z,98382.94
2023-02-27T17:19:51.402Z,98379.44
2023-02-27T17:22:18.525Z,98383.00
2023-02-27T17:24:45.623Z,98388.69
2023-02-27T17:27:12.731Z,98397.09
2023-02-27T17:29:39.879Z,98375.13
2023-02-27T17:32:07.032Z,98399.66
2023-02-27T17:34:34.174Z,98397.19
2023-02-27T17:37:02.815Z,98397.78
2023-02-27T17:39:29.939Z,98401.59
2023-02-27T17:41:57.057Z,98401.84
2023-02-27T17:44:24.280Z,98407.78
2023-02-27T17:46:51.383Z,98412.66
2023-02-27T17:49:18.522Z,98412.06
2023-02-27T17:51:45.932Z,98421.50
2023-02-27T17:54:14.365Z,98414.50
2023-02-27T17:56:41.472Z,98416.91
2023-02-27T17:59:08.859Z,98421.50
2023-02-27T18:01:35.996Z,98420.13
2023-02-27T18:04:03.407Z,98420.91
2023-02-27T18:06:30.834Z,98427.06
2023-02-27T18:08:58.060Z,98423.56
2023-02-27T18:11:26.531Z,98429.44
2023-02-27T18:13:53.700Z,98429.41
2023-02-27T18:16:21.110Z,98434.50
2023-02-27T18:18:48.614Z,98414.16
2023-02-27T18:21:17.919Z,98423.03
2023-02-27T18:23:45.574Z,98434.88
2023-02-27T18:26:27.175Z,98429.47
2023-02-27T18:28:57.706Z,98433.75
2023-02-27T18:31:27.075Z,98430.81
2023-02-27T18:33:54.347Z,98424.09
2023-02-27T18:36:21.442Z,98431.09
2023-02-27T18:38:48.516Z,98428.66
2023-02-27T18:41:15.722Z,98432.69
2023-02-27T18:43:43.563Z,98435.34
2023-02-27T18:46:12.906Z,98448.78
2023-02-27T18:48:40.864Z,98447.16
2023-02-27T18:51:11.006Z,98444.72
2023-02-27T18:53:39.084Z,98447.66
2023-02-27T18:56:08.126Z,98448.22
2023-02-27T18:58:35.723Z,98437.63
2023-02-27T19:01:03.031Z,98462.97
2023-02-27T19:03:32.016Z,98460.97
2023-02-27T19:05:59.466Z,98460.44
2023-02-27T19:08:26.913Z,98462.31
2023-02-27T19:10:53.988Z,98460.44
2023-02-27T19:13:21.236Z,98459.31
2023-02-27T19:15:48.386Z,98462.41
2023-02-27T19:18:15.511Z,98458.63
2023-02-27T19:20:44.161Z,98466.75
2023-02-27T19:23:11.270Z,98450.50
2023-02-27T19:25:38.356Z,98464.06
2023-02-27T19:28:05.460Z,98447.28
2023-02-27T19:30:32.653Z,98462.22
2023-02-27T19:32:59.755Z,98461.50
2023-02-27T19:35:27.761Z,98452.03
2023-02-27T19:37:56.211Z,98461.50
2023-02-27T19:40:23.891Z,98461.25
2023-02-27T19:42:51.122Z,98464.38
2023-02-27T19:45:18.378Z,98468.16
2023-02-27T19:47:45.498Z,98465.66
2023-02-27T19:50:12.825Z,98465.09
2023-02-27T19:52:39.956Z,98478.28
2023-02-27T19:55:09.355Z,98465.31
2023-02-27T19:57:37.303Z,98461.81
2023-02-27T20:00:05.712Z,98466.16
2023-02-27T20:02:33.097Z,98472.94
2023-02-27T20:05:00.378Z,98470.56
2023-02-27T20:07:27.460Z,98475.69
2023-02-27T20:09:54.792Z,98449.50
2023-02-27T20:12:23.470Z,98476.00
2023-02-27T20:14:50.663Z,98470.94
2023-02-27T20:17:18.042Z,98469.03
2023-02-27T20:19:45.187Z,98462.59
2023-02-27T20:22:12.277Z,98469.59
2023-02-27T20:24:39.824Z,98461.50
2023-02-27T20:27:07.012Z,98462.28
2023-02-27T20:29:35.608Z,98460.88
2023-02-27T20:32:03.696Z,98465.19
2023-02-27T20:34:30.865Z,98453.25
2023-02-27T20:36:57.974Z,98469.47
2023-02-27T20:39:25.322Z,98464.88
2023-02-27T20:41:52.417Z,98463.03
2023-02-27T20:44:19.517Z,98467.91
2023-02-27T20:46:49.428Z,98457.66
2023-02-27T20:49:17.181Z,98460.09
2023-02-27T20:51:45.053Z,98446.09
2023-02-27T20:54:13.904Z,98459.38
2023-02-27T20:56:41.636Z,98459.66
2023-02-27T20:59:11.955Z,98465.84
2023-02-27T21:01:39.410Z,98456.13
2023-02-27T21:04:08.098Z,98455.31
2023-02-27T21:06:35.316Z,98436.66
2023-02-27T21:09:05.333Z,98449.06
2023-02-27T21:11:33.404Z,98450.19
2023-02-27T21:14:04.091Z,98449.63
2023-02-27T21:16:31.826Z,98454.94
2023-02-27T21:18:59.027Z,98443.84
2023-02-27T21:21:30.041Z,98450.00
2023-02-27T21:23:58.327Z,98411.69
2023-02-27T21:26:27.054Z,98433.09
2023-02-27T21:28:56.186Z,98438.22
2023-02-27T21:31:25.619Z,98439.59
2023-02-27T21:33:53.496Z,98441.16
2023-02-27T21:36:25.444Z,98423.06
2023-02-27T21:38:57.632Z,98432.69
2023-02-27T21:41:24.731Z,98434.03
2023-02-27T21:43:51.808Z,98427.53
2023-02-27T21:46:18.962Z,98429.09
2023-02-27T21:48:46.051Z,98418.84
2023-02-27T21:51:13.139Z,98428.81
2023-02-27T21:53:40.240Z,98423.69
2023-02-27T21:56:10.486Z,98421.75
2023-02-27T21:58:38.275Z,98416.88
2023-02-27T22:01:12.050Z,98420.63
2023-02-27T22:03:39.131Z,98403.59
2023-02-27T22:06:06.871Z,98420.91
2023-02-27T22:08:34.080Z,98424.66
2023-02-27T22:11:01.187Z,98422.75
2023-02-27T22:13:29.766Z,98425.47
2023-02-27T22:15:58.024Z,98418.00
2023-02-27T22:18:26.821Z,98415.59
2023-02-27T22:20:53.977Z,98420.75
2023-02-27T22:23:21.225Z,98421.00
2023-02-27T22:25:58.570Z,98417.75
2023-02-27T22:28:25.957Z,98422.03
2023-02-27T22:30:54.418Z,98420.69
2023-02-27T22:33:21.525Z,98413.38
2023-02-27T22:35:48.719Z,98421.75
2023-02-27T22:38:15.934Z,98421.91
2023-02-27T22:40:43.047Z,98429.47
2023-02-27T22:43:10.188Z,98428.88
2023-02-27T22:45:37.294Z,98426.16
2023-02-27T22:48:06.655Z,98422.38
2023-02-27T22:50:33.967Z,98421.56
2023-02-27T22:53:01.041Z,98425.59
2023-02-27T22:55:28.115Z,98423.41
2023-02-27T22:57:55.243Z,98422.63
2023-02-27T23:00:22.842Z,98423.19
2023-02-27T23:02:49.923Z,98414.34
2023-02-27T23:05:18.450Z,98410.59
2023-02-27T23:07:45.516Z,98408.97
2023-02-27T23:10:12.611Z,98412.97
2023-02-27T23:12:39.873Z,98411.66
2023-02-27T23:15:08.657Z,98410.59
2023-02-27T23:17:38.159Z,98407.59
2023-02-27T23:20:11.893Z,98404.34
2023-02-27T23:22:40.322Z,98407.31
2023-02-27T23:25:08.062Z,98408.91
2023-02-27T23:27:35.170Z,98396.72
2023-02-27T23:30:02.268Z,98396.41
2023-02-27T23:32:29.481Z,98392.63
2023-02-27T23:34:56.606Z,98393.19
2023-02-27T23:37:23.686Z,98392.88
2023-02-27T23:39:52.111Z,98384.31
2023-02-27T23:42:19.230Z,98382.97
2023-02-27T23:44:46.306Z,98390.00
2023-02-27T23:47:13.383Z,98381.66
2023-02-27T23:49:40.468Z,98384.44
2023-02-27T23:52:07.535Z,98387.38
2023-02-27T23:54:34.786Z,98390.31
2023-02-27T23:57:03.499Z,98394.59
2023-02-27T23:59:30.579Z,98386.78
